createdAt,value
2023-02-18T00:01:35.149Z,12.31
2023-02-18T00:04:02.900Z,12.31
2023-02-18T00:06:33.724Z,12.32
2023-02-18T00:09:02.685Z,12.29
2023-02-18T00:11:32.934Z,12.29
2023-02-18T00:14:02.625Z,12.27
2023-02-18T00:16:31.831Z,12.30
2023-02-18T00:19:01.609Z,12.31
2023-02-18T00:21:30.530Z,12.31
2023-02-18T00:23:59.721Z,12.34
2023-02-18T00:26:28.110Z,12.30
2023-02-18T00:28:56.023Z,12.30
2023-02-18T00:31:25.766Z,12.29
2023-02-18T00:33:54.146Z,12.32
2023-02-18T00:36:23.500Z,12.33
2023-02-18T00:38:54.640Z,12.35
2023-02-18T00:41:26.221Z,12.36
2023-02-18T00:43:54.031Z,12.34
2023-02-18T00:46:21.935Z,12.35
2023-02-18T00:48:50.803Z,12.28
2023-02-18T00:51:18.653Z,12.29
2023-02-18T00:53:46.479Z,12.31
2023-02-18T00:56:14.281Z,12.32
2023-02-18T00:58:43.783Z,12.33
2023-02-18T01:01:12.570Z,12.32
2023-02-18T01:03:42.284Z,12.32
2023-02-18T01:06:11.233Z,12.33
2023-02-18T01:08:40.046Z,12.34
2023-02-18T01:11:09.204Z,12.32
2023-02-18T01:13:37.849Z,12.28
2023-02-18T01:16:07.709Z,12.26
2023-02-18T01:18:35.699Z,12.25
2023-02-18T01:21:05.162Z,12.26
2023-02-18T01:23:32.950Z,12.24
2023-02-18T01:26:00.683Z,12.28
2023-02-18T01:28:28.465Z,12.25
2023-02-18T01:30:56.347Z,12.27
2023-02-18T01:33:25.823Z,12.26
2023-02-18T01:35:54.024Z,12.22
2023-02-18T01:38:21.774Z,12.20
2023-02-18T01:40:52.121Z,12.19
2023-02-18T01:43:21.216Z,12.17
2023-02-18T01:46:03.638Z,12.16
2023-02-18T01:48:39.477Z,12.17
2023-02-18T01:51:12.784Z,12.20
2023-02-18T01:53:47.443Z,12.19
2023-02-18T01:56:22.921Z,12.20
2023-02-18T01:58:52.299Z,12.12
2023-02-18T02:01:20.165Z,12.09
2023-02-18T02:03:49.373Z,12.09
2023-02-18T02:06:19.422Z,12.13
2023-02-18T02:08:50.314Z,12.11
2023-02-18T02:11:30.198Z,12.11
2023-02-18T02:14:12.261Z,12.14
2023-02-18T02:16:46.034Z,12.16
2023-02-18T02:19:57.698Z,12.15
2023-02-18T02:23:04.112Z,12.10
2023-02-18T02:26:02.204Z,12.10
2023-02-18T02:28:59.540Z,12.10
2023-02-18T02:31:54.783Z,12.10
2023-02-18T02:34:40.356Z,12.07
2023-02-18T02:37:16.122Z,12.05
2023-02-18T02:39:55.305Z,11.96
2023-02-18T02:42:31.788Z,11.99
2023-02-18T02:45:08.628Z,12.00
2023-02-18T02:47:42.312Z,11.97
2023-02-18T02:50:17.549Z,11.97
2023-02-18T02:52:49.039Z,11.94
2023-02-18T02:55:17.101Z,11.94
2023-02-18T02:57:50.952Z,11.96
2023-02-18T03:00:22.628Z,11.94
2023-02-18T03:03:07.675Z,11.91
2023-02-18T03:05:51.772Z,11.92
2023-02-18T03:08:34.085Z,11.91
2023-02-18T03:11:06.399Z,11.91
2023-02-18T03:13:46.400Z,11.90
2023-02-18T03:16:24.074Z,11.84
2023-02-18T03:18:58.556Z,11.85
2023-02-18T03:21:30.762Z,11.84
2023-02-18T03:24:03.216Z,11.82
2023-02-18T03:26:31.510Z,11.86
2023-02-18T03:29:03.860Z,11.84
2023-02-18T03:31:35.502Z,11.82
2023-02-18T03:34:07.959Z,11.84
2023-02-18T03:36:37.736Z,11.83
2023-02-18T03:39:08.990Z,11.77
2023-02-18T03:41:37.259Z,11.75
2023-02-18T03:44:06.495Z,11.77
2023-02-18T03:46:36.276Z,11.74
2023-02-18T03:49:04.984Z,11.78
2023-02-18T03:51:32.823Z,11.76
2023-02-18T03:54:02.068Z,11.80
2023-02-18T03:56:29.813Z,11.77
2023-02-18T03:58:57.582Z,11.80
2023-02-18T04:01:25.410Z,11.79
2023-02-18T04:03:55.194Z,11.81
2023-02-18T04:06:23.477Z,11.83
2023-02-18T04:08:51.621Z,11.84
2023-02-18T04:11:21.031Z,11.83
2023-02-18T04:13:48.800Z,11.84
2023-02-18T04:16:16.539Z,11.84
2023-02-18T04:18:44.296Z,11.86
2023-02-18T04:21:12.137Z,11.88
2023-02-18T04:23:39.941Z,11.86
2023-02-18T04:26:07.978Z,11.85
2023-02-18T04:28:37.300Z,11.88
2023-02-18T04:31:05.374Z,11.91
2023-02-18T04:33:33.150Z,11.86
2023-02-18T04:36:00.949Z,11.82
2023-02-18T04:38:28.640Z,11.79
2023-02-18T04:40:56.385Z,11.77
2023-02-18T04:43:24.078Z,11.75
2023-02-18T04:45:53.217Z,11.75
2023-02-18T04:48:20.995Z,11.71
2023-02-18T04:50:49.257Z,11.69
2023-02-18T04:53:16.955Z,11.70
2023-02-18T04:55:44.835Z,11.70
2023-02-18T04:58:12.628Z,11.74
2023-02-18T05:00:40.386Z,11.68
2023-02-18T05:03:09.455Z,11.62
2023-02-18T05:05:37.485Z,11.61
2023-02-18T05:08:06.616Z,11.61
2023-02-18T05:10:34.350Z,11.60
2023-02-18T05:13:02.216Z,11.59
2023-02-18T05:15:29.999Z,11.57
2023-02-18T05:17:57.694Z,11.57
2023-02-18T05:20:26.796Z,11.53
2023-02-18T05:22:54.576Z,11.49
2023-02-18T05:25:22.526Z,11.53
2023-02-18T05:27:50.362Z,11.55
2023-02-18T05:30:18.310Z,11.52
2023-02-18T05:32:46.966Z,11.54
2023-02-18T05:35:14.742Z,11.62
2023-02-18T05:37:43.831Z,11.60
2023-02-18T05:40:13.510Z,11.52
2023-02-18T05:42:41.254Z,11.55
2023-02-18T05:45:10.015Z,11.54
2023-02-18T05:47:37.824Z,11.54
2023-02-18T05:50:07.208Z,11.53
2023-02-18T05:52:34.956Z,11.50
2023-02-18T05:55:04.801Z,11.53
2023-02-18T05:57:32.587Z,11.55
2023-02-18T06:00:00.514Z,11.54
2023-02-18T06:02:28.332Z,11.55
2023-02-18T06:04:56.152Z,11.50
2023-02-18T06:07:24.043Z,11.50
2023-02-18T06:09:51.770Z,11.49
2023-02-18T06:12:21.010Z,11.47
2023-02-18T06:14:48.945Z,11.46
2023-02-18T06:17:18.708Z,11.48
2023-02-18T06:19:46.628Z,11.51
2023-02-18T06:22:14.337Z,11.54
2023-02-18T06:24:42.386Z,11.58
2023-02-18T06:27:10.177Z,11.51
2023-02-18T06:29:39.307Z,11.47
2023-02-18T06:32:07.245Z,11.46
2023-02-18T06:34:35.028Z,11.39
2023-02-18T06:37:02.823Z,11.43
2023-02-18T06:39:30.552Z,11.41
2023-02-18T06:41:58.410Z,11.42
2023-02-18T06:44:26.215Z,11.45
2023-02-18T06:46:55.352Z,11.35
2023-02-18T06:49:23.089Z,11.32
2023-02-18T06:51:50.775Z,11.34
2023-02-18T06:54:18.521Z,11.31
2023-02-18T06:56:46.243Z,11.33
2023-02-18T06:59:13.925Z,11.31
2023-02-18T07:01:41.634Z,11.31
2023-02-18T07:04:10.754Z,11.25
2023-02-18T07:06:38.456Z,11.24
2023-02-18T07:09:07.861Z,11.26
2023-02-18T07:11:35.652Z,11.23
2023-02-18T07:14:03.386Z,11.25
2023-02-18T07:16:31.162Z,11.20
2023-02-18T07:18:58.906Z,11.23
2023-02-18T07:21:28.074Z,11.27
2023-02-18T07:23:55.817Z,11.25
2023-02-18T07:26:23.584Z,11.24
2023-02-18T07:28:51.406Z,11.22
2023-02-18T07:31:19.323Z,11.17
2023-02-18T07:33:47.203Z,11.14
2023-02-18T07:36:15.103Z,11.21
2023-02-18T07:38:44.245Z,11.21
2023-02-18T07:41:19.216Z,11.22
2023-02-18T07:43:47.067Z,11.23
2023-02-18T07:46:14.950Z,11.20
2023-02-18T07:48:42.837Z,11.25
2023-02-18T07:51:12.515Z,11.27
2023-02-18T07:53:41.036Z,11.25
2023-02-18T07:56:10.866Z,11.27
2023-02-18T07:58:40.332Z,11.41
2023-02-18T08:01:08.977Z,11.36
2023-02-18T08:03:37.378Z,11.35
2023-02-18T08:06:07.346Z,11.47
2023-02-18T08:08:37.195Z,11.50
2023-02-18T08:11:18.944Z,11.47
2023-02-18T08:13:49.473Z,11.49
2023-02-18T08:16:18.363Z,11.52
2023-02-18T08:18:47.873Z,11.48
2023-02-18T08:21:15.841Z,11.46
2023-02-18T08:23:43.906Z,11.42
2023-02-18T08:26:12.317Z,11.49
2023-02-18T08:28:40.376Z,11.43
2023-02-18T08:31:19.624Z,11.43
2023-02-18T08:33:47.615Z,11.47
2023-02-18T08:36:15.997Z,11.48
2023-02-18T08:38:43.743Z,11.50
2023-02-18T08:41:11.827Z,11.48
2023-02-18T08:43:39.609Z,11.41
2023-02-18T08:46:09.069Z,11.39
2023-02-18T08:48:44.228Z,11.37
2023-02-18T08:51:14.126Z,11.38
2023-02-18T08:53:42.110Z,11.32
2023-02-18T08:56:10.797Z,11.24
2023-02-18T08:58:38.959Z,11.24
2023-02-18T09:01:10.904Z,11.17
2023-02-18T09:03:38.961Z,11.15
2023-02-18T09:06:07.354Z,11.12
2023-02-18T09:08:35.157Z,11.14
2023-02-18T09:11:05.527Z,11.22
2023-02-18T09:13:34.464Z,11.15
2023-02-18T09:16:04.370Z,11.16
2023-02-18T09:18:35.448Z,11.12
2023-02-18T09:21:04.620Z,11.10
2023-02-18T09:23:33.742Z,11.03
2023-02-18T09:26:02.078Z,11.07
2023-02-18T09:28:29.908Z,11.10
2023-02-18T09:30:57.751Z,11.14
2023-02-18T09:33:25.630Z,11.12
2023-02-18T09:35:55.230Z,11.17
2023-02-18T09:38:23.011Z,11.24
2023-02-18T09:40:54.930Z,11.25
2023-02-18T09:43:30.243Z,11.28
2023-02-18T09:46:00.590Z,11.29
2023-02-18T09:48:32.404Z,11.34
2023-02-18T09:51:01.791Z,11.36
2023-02-18T09:53:29.689Z,11.38
2023-02-18T09:55:59.027Z,11.35
2023-02-18T09:58:34.727Z,11.41
2023-02-18T10:01:12.005Z,11.41
2023-02-18T10:03:40.613Z,11.42
2023-02-18T10:06:17.093Z,11.36
2023-02-18T10:08:47.332Z,11.31
2023-02-18T10:11:17.660Z,11.34
2023-02-18T10:13:46.342Z,11.36
2023-02-18T10:16:18.905Z,11.34
2023-02-18T10:18:49.865Z,11.36
2023-02-18T10:21:23.158Z,11.38
2023-02-18T10:24:00.873Z,11.37
2023-02-18T10:26:30.861Z,11.30
2023-02-18T10:29:08.586Z,11.24
2023-02-18T10:31:40.552Z,11.21
2023-02-18T10:34:19.252Z,11.25
2023-02-18T10:36:52.816Z,11.22
2023-02-18T10:39:35.356Z,11.17
2023-02-18T10:42:15.940Z,11.16
2023-02-18T10:44:57.589Z,11.18
2023-02-18T10:47:38.477Z,11.08
2023-02-18T10:50:11.757Z,11.12
2023-02-18T10:52:44.325Z,11.04
2023-02-18T10:55:15.771Z,11.02
2023-02-18T10:57:51.901Z,10.95
2023-02-18T11:00:23.892Z,10.96
2023-02-18T11:03:06.970Z,10.90
2023-02-18T11:05:37.513Z,10.99
2023-02-18T11:08:09.971Z,10.98
2023-02-18T11:10:40.722Z,10.93
2023-02-18T11:13:11.040Z,11.02
2023-02-18T11:15:39.084Z,11.02
2023-02-18T11:18:29.694Z,11.08
2023-02-18T11:21:00.604Z,11.04
2023-02-18T11:23:29.934Z,11.10
2023-02-18T11:26:02.334Z,11.16
2023-02-18T11:28:47.654Z,11.19
2023-02-18T11:31:23.748Z,11.19
2023-02-18T11:33:55.100Z,11.18
2023-02-18T11:36:25.676Z,11.21
2023-02-18T11:38:57.855Z,11.14
2023-02-18T11:41:34.212Z,11.03
2023-02-18T11:44:03.463Z,11.05
2023-02-18T11:46:31.621Z,11.08
2023-02-18T11:49:13.036Z,11.07
2023-02-18T11:51:41.584Z,11.01
2023-02-18T11:54:24.897Z,11.08
2023-02-18T11:56:57.568Z,11.10
2023-02-18T11:59:26.121Z,11.14
2023-02-18T12:01:58.493Z,11.14
2023-02-18T12:04:31.602Z,11.18
2023-02-18T12:07:13.726Z,11.18
2023-02-18T12:09:47.465Z,11.23
2023-02-18T12:12:19.255Z,11.29
2023-02-18T12:14:47.088Z,11.28
2023-02-18T12:17:41.952Z,11.19
2023-02-18T12:20:39.806Z,11.16
2023-02-18T12:23:17.438Z,11.14
2023-02-18T12:25:57.542Z,11.14
2023-02-18T12:28:36.695Z,11.21
2023-02-18T12:31:36.382Z,11.18
2023-02-18T12:34:20.386Z,11.24
2023-02-18T12:36:59.569Z,11.34
2023-02-18T12:39:42.525Z,11.33
2023-02-18T12:42:37.445Z,11.41
2023-02-18T12:45:22.716Z,11.40
2023-02-18T12:48:12.474Z,11.46
2023-02-18T12:51:06.445Z,11.48
2023-02-18T12:53:50.176Z,11.47
2023-02-18T12:56:42.100Z,11.39
2023-02-18T12:59:23.414Z,11.38
2023-02-18T13:01:59.287Z,11.38
2023-02-18T13:04:38.891Z,11.36
2023-02-18T13:07:32.157Z,11.41
2023-02-18T13:10:38.045Z,11.46
2023-02-18T13:13:11.851Z,11.51
2023-02-18T13:15:45.170Z,11.52
2023-02-18T13:18:18.165Z,11.51
2023-02-18T13:20:50.496Z,11.50
2023-02-18T13:23:20.868Z,11.43
2023-02-18T13:25:53.625Z,11.45
2023-02-18T13:28:27.518Z,11.46
2023-02-18T13:31:07.898Z,11.49
2023-02-18T13:33:43.998Z,11.46
2023-02-18T13:36:21.202Z,11.53
2023-02-18T13:38:56.273Z,11.54
2023-02-18T13:41:26.554Z,11.58
2023-02-18T13:43:54.757Z,11.57
2023-02-18T13:46:24.773Z,11.62
2023-02-18T13:48:54.873Z,11.66
2023-02-18T13:51:31.688Z,11.63
2023-02-18T13:54:05.272Z,11.62
2023-02-18T13:56:36.251Z,11.64
2023-02-18T13:59:11.170Z,11.67
2023-02-18T14:01:43.624Z,11.66
2023-02-18T14:04:29.821Z,11.65
2023-02-18T14:07:26.317Z,11.60
2023-02-18T14:09:55.761Z,11.63
2023-02-18T14:12:39.167Z,11.65
2023-02-18T14:15:44.206Z,11.71
2023-02-18T14:18:25.946Z,11.80
2023-02-18T14:21:04.567Z,11.81
2023-02-18T14:23:42.185Z,11.80
2023-02-18T14:26:19.214Z,11.80
2023-02-18T14:28:54.613Z,11.75
2023-02-18T14:31:38.409Z,11.77
2023-02-18T14:34:39.237Z,11.76
2023-02-18T14:37:29.660Z,11.73
2023-02-18T14:40:07.521Z,11.76
2023-02-18T14:42:44.889Z,11.80
2023-02-18T14:45:26.498Z,11.82
2023-02-18T14:48:18.046Z,11.85
2023-02-18T14:50:51.221Z,11.85
2023-02-18T14:53:21.191Z,11.86
2023-02-18T14:55:52.023Z,11.91
2023-02-18T14:58:29.159Z,11.93
2023-02-18T15:00:57.229Z,11.91
2023-02-18T15:03:28.370Z,11.91
2023-02-18T15:05:57.502Z,11.87
2023-02-18T15:08:27.152Z,11.86
2023-02-18T15:10:59.864Z,11.85
2023-02-18T15:13:30.403Z,11.84
2023-02-18T15:16:01.603Z,11.88
2023-02-18T15:18:37.643Z,11.91
2023-02-18T15:21:22.190Z,11.94
2023-02-18T15:23:50.552Z,11.93
2023-02-18T15:26:18.940Z,11.90
2023-02-18T15:28:55.795Z,11.94
2023-02-18T15:31:27.320Z,11.96
2023-02-18T15:33:55.117Z,11.93
2023-02-18T15:36:27.608Z,11.93
2023-02-18T15:38:56.170Z,11.93
2023-02-18T15:41:24.256Z,11.94
2023-02-18T15:43:57.095Z,11.95
2023-02-18T15:46:28.789Z,11.91
2023-02-18T15:48:58.958Z,11.91
2023-02-18T15:51:31.484Z,11.92
2023-02-18T15:54:00.657Z,11.92
2023-02-18T15:56:32.537Z,11.92
2023-02-18T15:59:20.232Z,11.91
2023-02-18T16:01:51.129Z,11.93
2023-02-18T16:04:19.708Z,11.92
2023-02-18T16:06:52.018Z,11.95
2023-02-18T16:09:24.524Z,11.97
2023-02-18T16:11:53.133Z,11.97
2023-02-18T16:14:32.620Z,11.96
2023-02-18T16:17:10.369Z,11.94
2023-02-18T16:20:04.004Z,11.90
2023-02-18T16:22:44.017Z,11.92
2023-02-18T16:25:18.293Z,11.90
2023-02-18T16:27:52.458Z,11.93
2023-02-18T16:30:22.685Z,11.94
2023-02-18T16:32:50.544Z,11.92
2023-02-18T16:35:18.754Z,11.93
2023-02-18T16:37:50.136Z,11.93
2023-02-18T16:40:25.722Z,11.94
2023-02-18T16:42:54.538Z,11.92
2023-02-18T16:45:25.213Z,11.92
2023-02-18T16:47:52.999Z,11.93
2023-02-18T16:50:22.949Z,11.91
2023-02-18T16:52:53.966Z,11.90
2023-02-18T16:55:23.301Z,11.86
2023-02-18T16:57:51.174Z,11.84
2023-02-18T17:00:20.067Z,11.83
2023-02-18T17:02:51.076Z,11.85
2023-02-18T17:05:27.548Z,11.84
2023-02-18T17:07:58.692Z,11.83
2023-02-18T17:10:26.407Z,11.79
2023-02-18T17:12:54.063Z,11.80
2023-02-18T17:15:33.088Z,11.81
2023-02-18T17:18:01.751Z,11.80
2023-02-18T17:20:32.056Z,11.81
2023-02-18T17:23:01.204Z,11.80
2023-02-18T17:25:33.260Z,11.82
2023-02-18T17:28:02.934Z,11.78
2023-02-18T17:30:31.914Z,11.81
2023-02-18T17:33:03.074Z,11.83
2023-02-18T17:35:31.481Z,11.84
2023-02-18T17:37:59.237Z,11.82
2023-02-18T17:40:29.598Z,11.82
2023-02-18T17:42:57.678Z,11.82
2023-02-18T17:45:29.870Z,11.80
2023-02-18T17:47:57.974Z,11.80
2023-02-18T17:50:26.375Z,11.78
2023-02-18T17:52:54.052Z,11.78
2023-02-18T17:55:24.088Z,11.78
2023-02-18T17:57:54.069Z,11.75
2023-02-18T18:00:24.003Z,11.72
2023-02-18T18:02:51.971Z,11.72
2023-02-18T18:05:23.079Z,11.72
2023-02-18T18:07:51.769Z,11.69
2023-02-18T18:10:21.947Z,11.70
2023-02-18T18:12:50.759Z,11.72
2023-02-18T18:15:27.973Z,11.76
2023-02-18T18:17:56.987Z,11.74
2023-02-18T18:20:25.388Z,11.76
2023-02-18T18:22:55.234Z,11.77
2023-02-18T18:25:26.572Z,11.74
2023-02-18T18:27:54.496Z,11.72
2023-02-18T18:30:25.887Z,11.71
2023-02-18T18:32:53.779Z,11.75
2023-02-18T18:35:24.459Z,11.74
2023-02-18T18:37:52.859Z,11.77
2023-02-18T18:40:22.642Z,11.76
2023-02-18T18:42:50.838Z,11.75
2023-02-18T18:45:22.262Z,11.74
2023-02-18T18:47:55.203Z,11.73
2023-02-18T18:50:24.182Z,11.74
2023-02-18T18:52:53.572Z,11.73
2023-02-18T18:55:25.001Z,11.73
2023-02-18T18:57:53.214Z,11.72
2023-02-18T19:00:23.295Z,11.69
2023-02-18T19:02:52.498Z,11.64
2023-02-18T19:05:23.756Z,11.57
2023-02-18T19:07:51.664Z,11.56
2023-02-18T19:10:20.766Z,11.56
2023-02-18T19:12:49.870Z,11.57
2023-02-18T19:15:20.159Z,11.56
2023-02-18T19:17:54.725Z,11.55
2023-02-18T19:20:28.277Z,11.57
2023-02-18T19:22:58.290Z,11.57
2023-02-18T19:25:26.935Z,11.59
2023-02-18T19:27:54.914Z,11.64
2023-02-18T19:30:24.692Z,11.62
2023-02-18T19:32:56.810Z,11.63
2023-02-18T19:35:25.946Z,11.63
2023-02-18T19:37:54.198Z,11.63
2023-02-18T19:40:24.172Z,11.67
2023-02-18T19:42:52.592Z,11.64
2023-02-18T19:45:20.770Z,11.63
2023-02-18T19:47:53.344Z,11.65
2023-02-18T19:50:22.595Z,11.65
2023-02-18T19:52:53.119Z,11.63
2023-02-18T19:55:21.697Z,11.63
2023-02-18T19:57:49.500Z,11.63
2023-02-18T20:00:19.124Z,11.61
2023-02-18T20:02:47.848Z,11.57
2023-02-18T20:05:16.160Z,11.56
2023-02-18T20:07:46.912Z,11.58
2023-02-18T20:10:16.775Z,11.55
2023-02-18T20:12:45.075Z,11.55
2023-02-18T20:15:12.964Z,11.56
2023-02-18T20:17:44.978Z,11.50
2023-02-18T20:20:12.832Z,11.53
2023-02-18T20:22:40.704Z,11.58
2023-02-18T20:25:10.337Z,11.57
2023-02-18T20:27:45.152Z,11.57
2023-02-18T20:30:19.030Z,11.58
2023-02-18T20:32:46.893Z,11.50
2023-02-18T20:35:14.714Z,11.54
2023-02-18T20:37:42.485Z,11.57
2023-02-18T20:40:12.097Z,11.58
2023-02-18T20:42:41.909Z,11.58
2023-02-18T20:45:10.680Z,11.62
2023-02-18T20:47:38.411Z,11.57
2023-02-18T20:50:06.624Z,11.59
2023-02-18T20:52:36.532Z,11.58
2023-02-18T20:55:04.398Z,11.57
2023-02-18T20:57:33.610Z,11.54
2023-02-18T21:00:05.987Z,11.55
2023-02-18T21:02:33.880Z,11.53
2023-02-18T21:05:01.660Z,11.54
2023-02-18T21:07:29.463Z,11.55
2023-02-18T21:09:57.233Z,11.58
2023-02-18T21:12:25.119Z,11.62
2023-02-18T21:14:54.338Z,11.59
2023-02-18T21:17:22.936Z,11.59
2023-02-18T21:19:50.709Z,11.59
2023-02-18T21:22:18.422Z,11.58
2023-02-18T21:24:46.333Z,11.62
2023-02-18T21:27:14.144Z,11.60
2023-02-18T21:29:41.986Z,11.58
2023-02-18T21:32:11.176Z,11.57
2023-02-18T21:34:39.013Z,11.57
2023-02-18T21:37:06.693Z,11.54
2023-02-18T21:39:34.468Z,11.52
2023-02-18T21:42:04.254Z,11.52
2023-02-18T21:44:41.698Z,11.52
2023-02-18T21:47:12.334Z,11.56
2023-02-18T21:49:40.104Z,11.54
2023-02-18T21:52:09.468Z,11.55
2023-02-18T21:54:40.245Z,11.53
2023-02-18T21:57:10.824Z,11.49
2023-02-18T21:59:38.856Z,11.51
2023-02-18T22:02:09.978Z,11.51
2023-02-18T22:04:39.189Z,11.50
2023-02-18T22:07:06.917Z,11.50
2023-02-18T22:09:34.783Z,11.53
2023-02-18T22:12:02.610Z,11.57
2023-02-18T22:14:30.673Z,11.54
2023-02-18T22:16:58.600Z,11.55
2023-02-18T22:19:26.738Z,11.53
2023-02-18T22:21:56.217Z,11.55
2023-02-18T22:24:23.939Z,11.51
2023-02-18T22:26:51.852Z,11.51
2023-02-18T22:29:21.502Z,11.55
2023-02-18T22:31:50.155Z,11.56
2023-02-18T22:34:18.102Z,11.54
2023-02-18T22:36:46.081Z,11.53
2023-02-18T22:39:16.292Z,11.52
2023-02-18T22:41:44.145Z,11.50
2023-02-18T22:44:13.855Z,11.55
2023-02-18T22:46:41.748Z,11.54
2023-02-18T22:49:09.627Z,11.52
2023-02-18T22:51:39.877Z,11.55
2023-02-18T22:54:11.009Z,11.52
2023-02-18T22:56:40.575Z,11.52
2023-02-18T22:59:08.296Z,11.48
2023-02-18T23:01:38.187Z,11.45
2023-02-18T23:04:08.821Z,11.47
2023-02-18T23:06:37.627Z,11.48
2023-02-18T23:09:06.494Z,11.47
2023-02-18T23:11:34.649Z,11.47
2023-02-18T23:14:18.937Z,11.48
2023-02-18T23:17:04.524Z,11.40
2023-02-18T23:19:33.453Z,11.43
2023-02-18T23:22:01.135Z,11.39
2023-02-18T23:24:29.017Z,11.44
2023-02-18T23:26:56.765Z,11.47
2023-02-18T23:29:25.848Z,11.44
2023-02-18T23:31:53.689Z,11.47
2023-02-18T23:34:21.457Z,11.49
2023-02-18T23:36:49.233Z,11.43
2023-02-18T23:39:18.903Z,11.42
2023-02-18T23:41:48.117Z,11.50
2023-02-18T23:44:17.359Z,11.49
2023-02-18T23:46:46.609Z,11.47
2023-02-18T23:49:15.963Z,11.43
2023-02-18T23:51:44.192Z,11.43
2023-02-18T23:54:13.913Z,11.46
2023-02-18T23:56:41.768Z,11.47
2023-02-18T23:59:12.200Z,11.47
